createdAt,value
2019-02-27T00:00:01.124Z,23.32
2019-02-27T00:05:01.082Z,23.33
2019-02-27T00:10:01.081Z,23.34
2019-02-27T00:15:02.144Z,23.34
2019-02-27T00:20:04.114Z,23.35
2019-02-27T00:25:03.438Z,23.35
2019-02-27T00:30:04.669Z,23.33
2019-02-27T00:35:01.078Z,23.33
2019-02-27T00:40:05.461Z,23.33
2019-02-27T00:45:01.073Z,23.34
2019-02-27T00:50:05.651Z,23.35
2019-02-27T00:55:04.325Z,23.35
2019-02-27T01:00:01.090Z,23.35
2019-02-27T01:05:01.099Z,23.36
2019-02-27T01:10:01.081Z,23.34
2019-02-27T01:15:01.084Z,23.35
2019-02-27T01:20:01.474Z,23.35
2019-02-27T01:25:01.084Z,23.33
2019-02-27T01:30:01.102Z,23.33
2019-02-27T01:35:01.087Z,23.33
2019-02-27T01:40:01.095Z,23.31
2019-02-27T01:45:01.082Z,23.32
2019-02-27T01:50:01.071Z,23.32
2019-02-27T01:55:01.071Z,23.33
2019-02-27T02:00:01.092Z,23.32
2019-02-27T02:05:02.199Z,23.31
2019-02-27T02:10:01.070Z,23.32
2019-02-27T02:15:01.437Z,23.32
2019-02-27T02:20:01.082Z,23.32
2019-02-27T02:25:01.095Z,23.31
2019-02-27T02:30:01.091Z,23.32
2019-02-27T02:35:01.100Z,23.34
2019-02-27T02:40:01.579Z,23.34
2019-02-27T02:45:01.087Z,23.35
2019-02-27T02:50:01.115Z,23.34
2019-02-27T02:55:01.103Z,23.35
2019-02-27T03:00:01.729Z,23.35
2019-02-27T03:05:01.111Z,23.36
2019-02-27T03:10:06.978Z,23.37
2019-02-27T03:15:01.082Z,23.36
2019-02-27T03:20:01.088Z,23.37
2019-02-27T03:25:04.395Z,23.39
2019-02-27T03:30:01.389Z,23.39
2019-02-27T03:35:01.110Z,23.40
2019-02-27T03:40:01.075Z,23.41
2019-02-27T03:45:01.498Z,23.43
2019-02-27T03:50:01.154Z,23.44
2019-02-27T03:55:01.082Z,23.44
2019-02-27T04:00:01.079Z,23.44
2019-02-27T04:05:05.418Z,23.46
2019-02-27T04:10:01.074Z,23.47
2019-02-27T04:15:01.401Z,23.49
2019-02-27T04:20:01.100Z,23.48
2019-02-27T04:25:01.099Z,23.49
2019-02-27T04:30:01.104Z,23.50
2019-02-27T04:35:01.113Z,23.52
2019-02-27T04:40:01.070Z,23.53
2019-02-27T04:45:01.088Z,23.55
2019-02-27T04:50:01.101Z,23.55
2019-02-27T04:55:01.591Z,23.55
2019-02-27T05:00:01.087Z,23.58
2019-02-27T05:05:01.082Z,23.60
2019-02-27T05:10:01.118Z,23.59
2019-02-27T05:15:03.965Z,23.60
2019-02-27T05:20:01.120Z,23.63
2019-02-27T05:25:01.044Z,23.62
2019-02-27T05:30:01.039Z,23.64
2019-02-27T05:35:01.045Z,23.66
2019-02-27T05:40:01.096Z,23.66
2019-02-27T05:45:01.075Z,23.68
2019-02-27T05:50:01.521Z,23.70
2019-02-27T05:55:01.134Z,23.70
2019-02-27T06:00:02.730Z,23.72
2019-02-27T06:05:01.110Z,23.72
2019-02-27T06:10:01.132Z,23.72
2019-02-27T06:15:01.077Z,23.73
2019-02-27T06:20:01.098Z,23.74
2019-02-27T06:25:01.108Z,23.74
2019-02-27T06:30:01.071Z,23.78
2019-02-27T06:35:01.080Z,23.76
2019-02-27T06:40:01.088Z,23.77
2019-02-27T06:45:01.076Z,23.78
2019-02-27T06:50:01.076Z,23.78
2019-02-27T06:55:01.081Z,23.80
2019-02-27T07:00:02.769Z,23.80
2019-02-27T07:05:01.084Z,23.79
2019-02-27T07:10:01.079Z,23.79
2019-02-27T07:15:01.238Z,23.79
2019-02-27T07:20:01.056Z,23.80
2019-02-27T07:25:01.072Z,23.80
2019-02-27T07:30:01.070Z,23.80
2019-02-27T07:35:01.270Z,23.79
2019-02-27T07:40:01.025Z,23.79
2019-02-27T07:45:01.086Z,23.79
2019-02-27T07:50:02.755Z,23.79
2019-02-27T07:55:01.303Z,23.79
2019-02-27T08:00:01.075Z,23.79
2019-02-27T08:05:01.096Z,23.80
2019-02-27T08:10:04.047Z,23.79
2019-02-27T08:15:01.105Z,23.78
2019-02-27T08:20:01.091Z,23.80
2019-02-27T08:25:01.077Z,23.79
2019-02-27T08:30:01.039Z,23.79
2019-02-27T08:35:01.058Z,23.79
2019-02-27T08:40:01.106Z,23.79
2019-02-27T08:45:01.083Z,23.80
2019-02-27T08:50:01.073Z,23.79
2019-02-27T08:55:05.439Z,23.79
2019-02-27T09:00:01.091Z,23.78
2019-02-27T09:05:01.075Z,23.79
2019-02-27T09:10:01.358Z,23.79
2019-02-27T09:15:01.060Z,23.78
2019-02-27T09:20:01.082Z,23.78
2019-02-27T09:25:01.099Z,23.78
2019-02-27T09:30:02.697Z,23.78
2019-02-27T09:35:01.366Z,23.78
2019-02-27T09:40:04.802Z,23.77
2019-02-27T09:45:01.038Z,23.77
2019-02-27T09:50:01.411Z,23.77
2019-02-27T09:55:01.087Z,23.77
2019-02-27T10:00:02.899Z,23.78
2019-02-27T10:05:03.030Z,23.76
2019-02-27T10:10:01.417Z,23.77
2019-02-27T10:15:01.102Z,23.76
2019-02-27T10:20:02.530Z,23.76
2019-02-27T10:25:01.091Z,23.75
2019-02-27T10:30:01.081Z,23.75
2019-02-27T10:35:01.090Z,23.75
2019-02-27T10:40:01.084Z,23.74
2019-02-27T10:45:01.060Z,23.74
2019-02-27T10:50:02.163Z,23.74
2019-02-27T10:55:01.068Z,23.73
2019-02-27T11:00:01.130Z,23.73
2019-02-27T11:05:01.094Z,23.73
2019-02-27T11:10:01.100Z,23.72
2019-02-27T11:15:01.095Z,23.72
2019-02-27T11:20:01.094Z,23.72
2019-02-27T11:25:01.083Z,23.70
2019-02-27T11:30:02.999Z,23.70
2019-02-27T11:35:01.091Z,23.71
2019-02-27T11:40:01.093Z,23.70
2019-02-27T11:45:01.551Z,23.69
2019-02-27T11:50:01.032Z,23.70
2019-02-27T11:55:01.050Z,23.70
2019-02-27T12:00:01.087Z,23.67
2019-02-27T12:05:01.095Z,23.66
2019-02-27T12:10:01.072Z,23.66
2019-02-27T12:15:01.077Z,23.66
2019-02-27T12:20:01.111Z,23.67
2019-02-27T12:25:01.111Z,23.66
2019-02-27T12:30:03.008Z,23.64
2019-02-27T12:35:03.035Z,23.66
2019-02-27T12:40:01.055Z,23.66
2019-02-27T12:45:01.427Z,23.65
2019-02-27T12:50:01.565Z,23.63
2019-02-27T12:55:01.879Z,23.63
2019-02-27T13:00:01.089Z,23.62
2019-02-27T13:05:02.321Z,23.63
2019-02-27T13:10:02.410Z,23.62
2019-02-27T13:15:01.124Z,23.62
2019-02-27T13:20:02.987Z,23.62
2019-02-27T13:25:01.640Z,23.61
2019-02-27T13:30:08.781Z,23.59
2019-02-27T13:35:01.061Z,23.60
2019-02-27T13:40:01.330Z,23.58
2019-02-27T13:45:01.099Z,23.57
2019-02-27T13:50:01.077Z,23.57
2019-02-27T13:55:01.105Z,23.56
2019-02-27T14:00:01.125Z,23.58
2019-02-27T14:05:01.109Z,23.56
2019-02-27T14:10:01.632Z,23.57
2019-02-27T14:15:01.092Z,23.55
2019-02-27T14:20:01.104Z,23.56
2019-02-27T14:25:01.105Z,23.55
2019-02-27T14:30:03.717Z,23.54
2019-02-27T14:35:01.695Z,23.54
2019-02-27T14:40:04.138Z,23.52
2019-02-27T14:45:03.264Z,23.50
2019-02-27T14:50:01.107Z,23.51
2019-02-27T14:55:03.515Z,23.52
2019-02-27T15:00:02.316Z,23.50
2019-02-27T15:05:06.106Z,23.49
2019-02-27T15:10:01.126Z,23.48
2019-02-27T15:15:01.101Z,23.47
2019-02-27T15:20:04.836Z,23.48
2019-02-27T15:25:01.110Z,23.47
2019-02-27T15:30:01.058Z,23.47
2019-02-27T15:35:01.095Z,23.45
2019-02-27T15:40:01.076Z,23.45
2019-02-27T15:45:01.069Z,23.46
2019-02-27T15:50:02.665Z,23.44
2019-02-27T15:55:01.088Z,23.43
2019-02-27T16:00:01.061Z,23.43
2019-02-27T16:05:01.413Z,23.43
2019-02-27T16:10:06.783Z,23.42
2019-02-27T16:15:01.088Z,23.42
2019-02-27T16:20:01.098Z,23.41
2019-02-27T16:25:01.090Z,23.41
2019-02-27T16:30:01.060Z,23.40
2019-02-27T16:35:01.083Z,23.41
2019-02-27T16:40:01.099Z,23.40
2019-02-27T16:45:01.109Z,23.39
2019-02-27T16:50:01.459Z,23.38
2019-02-27T16:55:02.366Z,23.38
2019-02-27T17:00:01.851Z,23.38
2019-02-27T17:05:01.094Z,23.38
2019-02-27T17:10:01.105Z,23.37
2019-02-27T17:15:01.097Z,23.36
2019-02-27T17:20:01.677Z,23.34
2019-02-27T17:25:02.056Z,23.35
2019-02-27T17:30:01.187Z,23.33
2019-02-27T17:35:01.697Z,23.35
2019-02-27T17:40:02.229Z,23.32
2019-02-27T17:45:01.042Z,23.33
2019-02-27T17:50:01.065Z,23.33
2019-02-27T17:55:03.561Z,23.32
2019-02-27T18:00:01.065Z,23.30
2019-02-27T18:05:02.289Z,23.32
2019-02-27T18:10:02.250Z,23.33
2019-02-27T18:15:01.088Z,23.30
2019-02-27T18:20:01.103Z,23.30
2019-02-27T18:25:01.079Z,23.29
2019-02-27T18:30:01.072Z,23.28
2019-02-27T18:35:01.058Z,23.31
2019-02-27T18:40:01.060Z,23.29
2019-02-27T18:45:01.243Z,23.30
2019-02-27T18:50:01.188Z,23.30
2019-02-27T18:55:01.310Z,23.29
2019-02-27T19:00:02.363Z,23.31
2019-02-27T19:05:01.062Z,23.30
2019-02-27T19:10:03.848Z,23.31
2019-02-27T19:15:01.224Z,23.33
2019-02-27T19:20:01.109Z,23.35
2019-02-27T19:25:01.066Z,23.33
2019-02-27T19:30:06.374Z,23.35
2019-02-27T19:35:01.087Z,23.76
2019-02-27T19:40:01.281Z,23.85
2019-02-27T19:50:02.074Z,24.06
2019-02-27T19:55:01.057Z,24.01
2019-02-27T20:00:01.070Z,24.12
2019-02-27T20:05:01.065Z,24.16
2019-02-27T20:10:01.067Z,24.04
2019-02-27T20:15:01.073Z,23.88
2019-02-27T20:20:04.095Z,23.83
2019-02-27T20:25:01.063Z,23.79
2019-02-27T20:30:01.474Z,23.77
2019-02-27T20:35:01.134Z,23.75
2019-02-27T20:40:01.141Z,23.74
2019-02-27T20:45:01.112Z,23.71
2019-02-27T20:50:01.070Z,23.73
2019-02-27T20:55:01.065Z,23.73
2019-02-27T21:00:02.720Z,23.73
2019-02-27T21:05:01.100Z,23.75
2019-02-27T21:10:01.567Z,23.75
2019-02-27T21:15:01.096Z,23.75
2019-02-27T21:20:01.099Z,23.76
2019-02-27T21:25:01.101Z,23.77
2019-02-27T21:30:01.063Z,23.77
2019-02-27T21:35:01.067Z,23.77
2019-02-27T21:40:03.105Z,23.78
2019-02-27T21:45:03.652Z,23.79
2019-02-27T21:50:03.678Z,23.79
2019-02-27T21:55:01.116Z,23.80
2019-02-27T22:00:01.104Z,23.80
2019-02-27T22:05:01.593Z,23.81
2019-02-27T22:10:01.109Z,23.83
2019-02-27T22:15:01.102Z,23.83
2019-02-27T22:20:01.118Z,23.85
2019-02-27T22:25:01.100Z,23.85
2019-02-27T22:30:01.152Z,23.85
2019-02-27T22:35:02.591Z,23.87
2019-02-27T22:40:06.542Z,23.88
2019-02-27T22:45:03.952Z,23.89
2019-02-27T22:50:06.048Z,23.90
2019-02-27T22:55:01.092Z,23.91
2019-02-27T23:00:01.114Z,23.93
2019-02-27T23:05:01.370Z,23.93
2019-02-27T23:10:01.062Z,23.92
2019-02-27T23:15:01.118Z,23.93
2019-02-27T23:20:01.106Z,23.93
2019-02-27T23:25:01.111Z,23.93
2019-02-27T23:30:01.500Z,23.93
2019-02-27T23:35:01.094Z,23.94
2019-02-27T23:40:01.478Z,23.94
2019-02-27T23:45:01.104Z,23.94
2019-02-27T23:50:01.112Z,23.94
2019-02-27T23:55:01.114Z,23.94
